sensor_id;sensor_type;location;lat;lon;timestamp;temperature;humidity
12907;DHT22;6521;50.498;8.474;2023-01-29T00:02:24;-1.37;84.32
12907;DHT22;6521;50.498;8.474;2023-01-29T00:04:56;-1.39;84.40
12907;DHT22;6521;50.498;8.474;2023-01-29T00:07:27;-1.37;84.26
12907;DHT22;6521;50.498;8.474;2023-01-29T00:09:57;-1.39;84.35
12907;DHT22;6521;50.498;8.474;2023-01-29T00:12:28;-1.39;84.11
12907;DHT22;6521;50.498;8.474;2023-01-29T00:14:59;-1.40;84.23
12907;DHT22;6521;50.498;8.474;2023-01-29T00:17:29;-1.44;83.98
12907;DHT22;6521;50.498;8.474;2023-01-29T00:20:01;-1.42;84.18
12907;DHT22;6521;50.498;8.474;2023-01-29T00:22:32;-1.40;84.25
12907;DHT22;6521;50.498;8.474;2023-01-29T00:25:03;-1.36;84.19
12907;DHT22;6521;50.498;8.474;2023-01-29T00:27:34;-1.32;84.32
12907;DHT22;6521;50.498;8.474;2023-01-29T00:30:07;-1.33;84.11
12907;DHT22;6521;50.498;8.474;2023-01-29T00:32:42;-1.27;84.10
12907;DHT22;6521;50.498;8.474;2023-01-29T00:35:12;-1.25;83.81
12907;DHT22;6521;50.498;8.474;2023-01-29T00:37:43;-1.27;84.00
12907;DHT22;6521;50.498;8.474;2023-01-29T00:40:15;-1.29;84.00
12907;DHT22;6521;50.498;8.474;2023-01-29T00:42:46;-1.29;83.98
12907;DHT22;6521;50.498;8.474;2023-01-29T00:45:36;-1.30;84.02
12907;DHT22;6521;50.498;8.474;2023-01-29T00:48:07;-1.32;83.94
12907;DHT22;6521;50.498;8.474;2023-01-29T00:50:37;-1.39;84.15
12907;DHT22;6521;50.498;8.474;2023-01-29T00:53:09;-1.42;83.95
12907;DHT22;6521;50.498;8.474;2023-01-29T00:55:40;-1.44;84.03
12907;DHT22;6521;50.498;8.474;2023-01-29T00:58:11;-1.48;83.98
12907;DHT22;6521;50.498;8.474;2023-01-29T01:00:41;-1.54;84.13
12907;DHT22;6521;50.498;8.474;2023-01-29T01:03:12;-1.57;84.48
12907;DHT22;6521;50.498;8.474;2023-01-29T01:05:43;-1.63;84.44
12907;DHT22;6521;50.498;8.474;2023-01-29T01:08:14;-1.66;84.54
12907;DHT22;6521;50.498;8.474;2023-01-29T01:11:04;-1.71;84.24
12907;DHT22;6521;50.498;8.474;2023-01-29T01:13:36;-1.71;84.30
12907;DHT22;6521;50.498;8.474;2023-01-29T01:16:16;-1.74;84.24
12907;DHT22;6521;50.498;8.474;2023-01-29T01:18:48;-1.81;84.05
12907;DHT22;6521;50.498;8.474;2023-01-29T01:21:19;-1.84;84.21
12907;DHT22;6521;50.498;8.474;2023-01-29T01:23:49;-1.85;84.40
12907;DHT22;6521;50.498;8.474;2023-01-29T01:26:21;-1.89;84.49
12907;DHT22;6521;50.498;8.474;2023-01-29T01:28:52;-1.89;84.53
12907;DHT22;6521;50.498;8.474;2023-01-29T01:31:23;-1.91;84.83
12907;DHT22;6521;50.498;8.474;2023-01-29T01:33:53;-1.95;84.97
12907;DHT22;6521;50.498;8.474;2023-01-29T01:36:25;-2.03;84.91
12907;DHT22;6521;50.498;8.474;2023-01-29T01:38:55;-2.05;85.08
12907;DHT22;6521;50.498;8.474;2023-01-29T01:41:26;-2.12;84.96
12907;DHT22;6521;50.498;8.474;2023-01-29T01:43:59;-2.13;85.07
12907;DHT22;6521;50.498;8.474;2023-01-29T01:46:35;-2.21;85.16
12907;DHT22;6521;50.498;8.474;2023-01-29T01:49:10;-2.26;85.40
12907;DHT22;6521;50.498;8.474;2023-01-29T01:51:47;-2.26;85.64
12907;DHT22;6521;50.498;8.474;2023-01-29T01:56:55;-2.30;85.91
12907;DHT22;6521;50.498;8.474;2023-01-29T01:59:36;-2.32;85.71
12907;DHT22;6521;50.498;8.474;2023-01-29T02:02:08;-2.37;85.85
12907;DHT22;6521;50.498;8.474;2023-01-29T02:04:57;-2.42;85.73
12907;DHT22;6521;50.498;8.474;2023-01-29T02:07:48;-2.50;85.95
12907;DHT22;6521;50.498;8.474;2023-01-29T02:10:44;-2.56;86.02
12907;DHT22;6521;50.498;8.474;2023-01-29T02:13:15;-2.57;85.97
12907;DHT22;6521;50.498;8.474;2023-01-29T02:15:48;-2.58;86.39
12907;DHT22;6521;50.498;8.474;2023-01-29T02:18:20;-2.57;86.32
12907;DHT22;6521;50.498;8.474;2023-01-29T02:27:34;-2.68;86.75
12907;DHT22;6521;50.498;8.474;2023-01-29T02:32:44;-2.76;86.88
12907;DHT22;6521;50.498;8.474;2023-01-29T02:35:31;-2.81;87.03
12907;DHT22;6521;50.498;8.474;2023-01-29T02:38:17;-2.83;86.97
12907;DHT22;6521;50.498;8.474;2023-01-29T02:41:33;-2.88;87.16
12907;DHT22;6521;50.498;8.474;2023-01-29T02:44:07;-2.97;86.84
12907;DHT22;6521;50.498;8.474;2023-01-29T02:46:56;-3.05;86.96
12907;DHT22;6521;50.498;8.474;2023-01-29T02:49:41;-3.08;87.30
12907;DHT22;6521;50.498;8.474;2023-01-29T02:52:22;-3.09;87.22
12907;DHT22;6521;50.498;8.474;2023-01-29T02:54:59;-3.12;87.51
12907;DHT22;6521;50.498;8.474;2023-01-29T02:57:36;-3.13;87.54
12907;DHT22;6521;50.498;8.474;2023-01-29T03:02:48;-3.16;87.63
12907;DHT22;6521;50.498;8.474;2023-01-29T03:05:33;-3.19;87.60
12907;DHT22;6521;50.498;8.474;2023-01-29T03:08:08;-3.25;87.69
12907;DHT22;6521;50.498;8.474;2023-01-29T03:10:56;-3.26;87.89
12907;DHT22;6521;50.498;8.474;2023-01-29T03:13:46;-3.28;87.93
12907;DHT22;6521;50.498;8.474;2023-01-29T03:16:36;-3.29;88.18
12907;DHT22;6521;50.498;8.474;2023-01-29T03:19:19;-3.31;88.07
12907;DHT22;6521;50.498;8.474;2023-01-29T03:21:55;-3.35;88.08
12907;DHT22;6521;50.498;8.474;2023-01-29T03:24:49;-3.34;88.09
12907;DHT22;6521;50.498;8.474;2023-01-29T03:27:51;-3.36;88.01
12907;DHT22;6521;50.498;8.474;2023-01-29T03:30:54;-3.39;88.09
12907;DHT22;6521;50.498;8.474;2023-01-29T03:34:17;-3.42;88.21
12907;DHT22;6521;50.498;8.474;2023-01-29T03:36:56;-3.42;88.36
12907;DHT22;6521;50.498;8.474;2023-01-29T03:39:28;-3.40;88.39
12907;DHT22;6521;50.498;8.474;2023-01-29T03:42:23;-3.43;88.53
12907;DHT22;6521;50.498;8.474;2023-01-29T03:45:13;-3.43;88.40
12907;DHT22;6521;50.498;8.474;2023-01-29T03:47:58;-3.43;88.49
12907;DHT22;6521;50.498;8.474;2023-01-29T03:50:56;-3.46;88.34
12907;DHT22;6521;50.498;8.474;2023-01-29T03:53:47;-3.55;88.32
12907;DHT22;6521;50.498;8.474;2023-01-29T04:05:23;-3.57;88.76
12907;DHT22;6521;50.498;8.474;2023-01-29T04:08:18;-3.57;88.87
12907;DHT22;6521;50.498;8.474;2023-01-29T04:10:55;-3.60;88.96
12907;DHT22;6521;50.498;8.474;2023-01-29T04:13:29;-3.60;88.82
12907;DHT22;6521;50.498;8.474;2023-01-29T04:16:05;-3.60;89.01
12907;DHT22;6521;50.498;8.474;2023-01-29T04:18:59;-3.57;89.25
12907;DHT22;6521;50.498;8.474;2023-01-29T04:21:34;-3.52;89.21
12907;DHT22;6521;50.498;8.474;2023-01-29T04:24:10;-3.49;89.08
12907;DHT22;6521;50.498;8.474;2023-01-29T04:29:34;-3.42;89.14
12907;DHT22;6521;50.498;8.474;2023-01-29T04:43:29;-3.34;89.51
12907;DHT22;6521;50.498;8.474;2023-01-29T04:46:14;-3.28;89.64
12907;DHT22;6521;50.498;8.474;2023-01-29T04:49:44;-3.23;89.44
12907;DHT22;6521;50.498;8.474;2023-01-29T04:57:39;-3.31;89.02
12907;DHT22;6521;50.498;8.474;2023-01-29T05:00:17;-3.28;89.35
12907;DHT22;6521;50.498;8.474;2023-01-29T05:02:49;-3.29;89.18
12907;DHT22;6521;50.498;8.474;2023-01-29T05:05:21;-3.35;89.30
12907;DHT22;6521;50.498;8.474;2023-01-29T05:07:52;-3.28;89.45
12907;DHT22;6521;50.498;8.474;2023-01-29T05:10:24;-3.25;89.56
12907;DHT22;6521;50.498;8.474;2023-01-29T05:12:59;-3.20;89.61
12907;DHT22;6521;50.498;8.474;2023-01-29T05:15:43;-3.22;89.40
12907;DHT22;6521;50.498;8.474;2023-01-29T05:18:16;-3.19;89.63
12907;DHT22;6521;50.498;8.474;2023-01-29T05:20:48;-3.18;89.41
12907;DHT22;6521;50.498;8.474;2023-01-29T05:23:21;-3.22;89.20
12907;DHT22;6521;50.498;8.474;2023-01-29T05:25:52;-3.20;89.34
12907;DHT22;6521;50.498;8.474;2023-01-29T05:28:23;-3.20;89.44
12907;DHT22;6521;50.498;8.474;2023-01-29T05:30:55;-3.20;89.25
12907;DHT22;6521;50.498;8.474;2023-01-29T05:33:28;-3.20;89.30
12907;DHT22;6521;50.498;8.474;2023-01-29T05:36:00;-3.22;89.45
12907;DHT22;6521;50.498;8.474;2023-01-29T05:38:30;-3.23;89.37
12907;DHT22;6521;50.498;8.474;2023-01-29T05:41:01;-3.20;89.39
12907;DHT22;6521;50.498;8.474;2023-01-29T05:43:32;-3.22;89.12
12907;DHT22;6521;50.498;8.474;2023-01-29T05:46:03;-3.25;89.27
12907;DHT22;6521;50.498;8.474;2023-01-29T05:48:33;-3.29;89.26
12907;DHT22;6521;50.498;8.474;2023-01-29T05:51:04;-3.31;89.26
12907;DHT22;6521;50.498;8.474;2023-01-29T05:53:35;-3.35;89.25
12907;DHT22;6521;50.498;8.474;2023-01-29T05:56:06;-3.32;89.26
12907;DHT22;6521;50.498;8.474;2023-01-29T05:58:37;-3.36;89.27
12907;DHT22;6521;50.498;8.474;2023-01-29T06:01:13;-3.39;89.30
12907;DHT22;6521;50.498;8.474;2023-01-29T06:03:45;-3.43;89.46
12907;DHT22;6521;50.498;8.474;2023-01-29T06:06:16;-3.40;89.53
12907;DHT22;6521;50.498;8.474;2023-01-29T06:08:47;-3.39;89.53
12907;DHT22;6521;50.498;8.474;2023-01-29T06:11:18;-3.38;89.74
12907;DHT22;6521;50.498;8.474;2023-01-29T06:13:48;-3.36;89.51
12907;DHT22;6521;50.498;8.474;2023-01-29T06:16:19;-3.35;89.52
12907;DHT22;6521;50.498;8.474;2023-01-29T06:18:50;-3.40;89.74
12907;DHT22;6521;50.498;8.474;2023-01-29T06:21:21;-3.35;89.80
12907;DHT22;6521;50.498;8.474;2023-01-29T06:23:52;-3.34;89.75
12907;DHT22;6521;50.498;8.474;2023-01-29T06:26:23;-3.34;89.71
12907;DHT22;6521;50.498;8.474;2023-01-29T06:28:53;-3.38;89.96
12907;DHT22;6521;50.498;8.474;2023-01-29T06:31:24;-3.34;89.76
12907;DHT22;6521;50.498;8.474;2023-01-29T06:33:55;-3.38;89.75
12907;DHT22;6521;50.498;8.474;2023-01-29T06:36:26;-3.39;89.72
12907;DHT22;6521;50.498;8.474;2023-01-29T06:38:56;-3.39;89.86
12907;DHT22;6521;50.498;8.474;2023-01-29T06:41:27;-3.40;89.95
12907;DHT22;6521;50.498;8.474;2023-01-29T06:43:58;-3.42;90.02
12907;DHT22;6521;50.498;8.474;2023-01-29T06:46:29;-3.42;90.27
12907;DHT22;6521;50.498;8.474;2023-01-29T06:49:00;-3.35;90.33
12907;DHT22;6521;50.498;8.474;2023-01-29T06:51:31;-3.29;90.18
12907;DHT22;6521;50.498;8.474;2023-01-29T06:54:01;-3.28;90.04
12907;DHT22;6521;50.498;8.474;2023-01-29T06:56:33;-3.26;90.01
12907;DHT22;6521;50.498;8.474;2023-01-29T06:59:03;-3.22;90.15
12907;DHT22;6521;50.498;8.474;2023-01-29T07:01:38;-3.15;90.17
12907;DHT22;6521;50.498;8.474;2023-01-29T07:04:10;-3.13;89.88
12907;DHT22;6521;50.498;8.474;2023-01-29T07:06:41;-3.12;89.65
12907;DHT22;6521;50.498;8.474;2023-01-29T07:09:13;-3.18;89.69
12907;DHT22;6521;50.498;8.474;2023-01-29T07:11:44;-3.15;89.75
12907;DHT22;6521;50.498;8.474;2023-01-29T07:14:14;-3.13;89.69
12907;DHT22;6521;50.498;8.474;2023-01-29T07:16:45;-3.13;89.64
12907;DHT22;6521;50.498;8.474;2023-01-29T07:19:16;-3.15;89.57
12907;DHT22;6521;50.498;8.474;2023-01-29T07:21:47;-3.13;89.64
12907;DHT22;6521;50.498;8.474;2023-01-29T07:24:18;-3.11;89.62
12907;DHT22;6521;50.498;8.474;2023-01-29T07:26:48;-3.11;89.73
12907;DHT22;6521;50.498;8.474;2023-01-29T07:29:19;-3.06;89.68
12907;DHT22;6521;50.498;8.474;2023-01-29T07:31:50;-3.02;89.58
12907;DHT22;6521;50.498;8.474;2023-01-29T07:34:21;-3.04;89.56
12907;DHT22;6521;50.498;8.474;2023-01-29T07:36:52;-2.99;89.60
12907;DHT22;6521;50.498;8.474;2023-01-29T07:39:23;-2.94;89.73
12907;DHT22;6521;50.498;8.474;2023-01-29T07:41:54;-2.89;89.67
12907;DHT22;6521;50.498;8.474;2023-01-29T07:44:26;-2.91;89.70
12907;DHT22;6521;50.498;8.474;2023-01-29T07:46:57;-2.88;89.99
12907;DHT22;6521;50.498;8.474;2023-01-29T07:49:28;-2.84;89.90
12907;DHT22;6521;50.498;8.474;2023-01-29T07:51:59;-2.85;89.76
12907;DHT22;6521;50.498;8.474;2023-01-29T07:54:30;-2.78;89.72
12907;DHT22;6521;50.498;8.474;2023-01-29T07:57:00;-2.76;89.84
12907;DHT22;6521;50.498;8.474;2023-01-29T07:59:31;-2.71;90.00
12907;DHT22;6521;50.498;8.474;2023-01-29T08:02:02;-2.66;89.94
12907;DHT22;6521;50.498;8.474;2023-01-29T08:04:33;-2.67;89.93
12907;DHT22;6521;50.498;8.474;2023-01-29T08:07:03;-2.64;89.93
12907;DHT22;6521;50.498;8.474;2023-01-29T08:09:35;-2.64;89.56
12907;DHT22;6521;50.498;8.474;2023-01-29T08:12:06;-2.61;89.51
12907;DHT22;6521;50.498;8.474;2023-01-29T08:14:36;-2.57;89.56
12907;DHT22;6521;50.498;8.474;2023-01-29T08:17:07;-2.54;89.48
12907;DHT22;6521;50.498;8.474;2023-01-29T08:19:38;-2.52;89.56
12907;DHT22;6521;50.498;8.474;2023-01-29T08:22:09;-2.43;89.33
12907;DHT22;6521;50.498;8.474;2023-01-29T08:24:40;-2.40;89.57
12907;DHT22;6521;50.498;8.474;2023-01-29T08:27:11;-2.36;89.20
12907;DHT22;6521;50.498;8.474;2023-01-29T08:29:42;-2.33;89.02
12907;DHT22;6521;50.498;8.474;2023-01-29T08:32:13;-2.30;89.02
12907;DHT22;6521;50.498;8.474;2023-01-29T08:34:43;-2.28;88.99
12907;DHT22;6521;50.498;8.474;2023-01-29T08:37:15;-2.22;89.01
12907;DHT22;6521;50.498;8.474;2023-01-29T08:39:45;-2.18;89.01
12907;DHT22;6521;50.498;8.474;2023-01-29T08:42:16;-2.15;88.72
12907;DHT22;6521;50.498;8.474;2023-01-29T08:44:47;-2.10;88.79
12907;DHT22;6521;50.498;8.474;2023-01-29T08:47:18;-2.03;88.89
12907;DHT22;6521;50.498;8.474;2023-01-29T08:49:49;-1.94;88.57
12907;DHT22;6521;50.498;8.474;2023-01-29T08:52:20;-1.88;88.43
12907;DHT22;6521;50.498;8.474;2023-01-29T08:54:51;-1.87;88.37
12907;DHT22;6521;50.498;8.474;2023-01-29T08:57:22;-1.85;88.13
12907;DHT22;6521;50.498;8.474;2023-01-29T08:59:53;-1.79;87.99
12907;DHT22;6521;50.498;8.474;2023-01-29T09:02:24;-1.82;87.72
12907;DHT22;6521;50.498;8.474;2023-01-29T09:04:54;-1.75;87.30
12907;DHT22;6521;50.498;8.474;2023-01-29T09:07:25;-1.77;87.27
12907;DHT22;6521;50.498;8.474;2023-01-29T09:09:56;-1.78;87.21
12907;DHT22;6521;50.498;8.474;2023-01-29T09:12:27;-1.72;87.36
12907;DHT22;6521;50.498;8.474;2023-01-29T09:14:57;-1.70;87.02
12907;DHT22;6521;50.498;8.474;2023-01-29T09:17:28;-1.74;86.64
12907;DHT22;6521;50.498;8.474;2023-01-29T09:19:59;-1.68;86.84
12907;DHT22;6521;50.498;8.474;2023-01-29T09:22:31;-1.68;86.82
12907;DHT22;6521;50.498;8.474;2023-01-29T09:25:02;-1.63;86.52
12907;DHT22;6521;50.498;8.474;2023-01-29T09:27:33;-1.60;86.57
12907;DHT22;6521;50.498;8.474;2023-01-29T09:30:05;-1.54;86.23
12907;DHT22;6521;50.498;8.474;2023-01-29T09:32:36;-1.53;86.39
12907;DHT22;6521;50.498;8.474;2023-01-29T09:35:07;-1.46;86.35
12907;DHT22;6521;50.498;8.474;2023-01-29T09:37:38;-1.43;85.73
12907;DHT22;6521;50.498;8.474;2023-01-29T09:40:59;-1.42;85.34
12907;DHT22;6521;50.498;8.474;2023-01-29T09:46:15;-1.39;85.80
12907;DHT22;6521;50.498;8.474;2023-01-29T09:48:53;-1.32;85.44
12907;DHT22;6521;50.498;8.474;2023-01-29T09:51:36;-1.32;85.20
12907;DHT22;6521;50.498;8.474;2023-01-29T09:56:52;-1.32;85.33
12907;DHT22;6521;50.498;8.474;2023-01-29T09:59:26;-1.26;84.64
12907;DHT22;6521;50.498;8.474;2023-01-29T10:10:36;-0.96;83.64
12907;DHT22;6521;50.498;8.474;2023-01-29T10:13:32;-0.93;83.25
12907;DHT22;6521;50.498;8.474;2023-01-29T10:16:19;-0.78;82.81
12907;DHT22;6521;50.498;8.474;2023-01-29T10:19:07;-0.58;82.24
12907;DHT22;6521;50.498;8.474;2023-01-29T10:21:55;-0.33;81.69
12907;DHT22;6521;50.498;8.474;2023-01-29T10:24:37;-0.14;81.37
12907;DHT22;6521;50.498;8.474;2023-01-29T10:27:16;-0.02;80.77
12907;DHT22;6521;50.498;8.474;2023-01-29T10:29:50;-0.17;79.58
12907;DHT22;6521;50.498;8.474;2023-01-29T10:32:25;-0.16;79.63
12907;DHT22;6521;50.498;8.474;2023-01-29T10:34:59;-0.16;79.09
12907;DHT22;6521;50.498;8.474;2023-01-29T10:37:39;-0.19;79.15
12907;DHT22;6521;50.498;8.474;2023-01-29T10:40:20;-0.10;79.07
12907;DHT22;6521;50.498;8.474;2023-01-29T10:43:21;0.00;78.95
12907;DHT22;6521;50.498;8.474;2023-01-29T10:57:59;0.97;75.14
12907;DHT22;6521;50.498;8.474;2023-01-29T11:00:38;1.19;74.86
12907;DHT22;6521;50.498;8.474;2023-01-29T11:11:53;0.96;74.30
12907;DHT22;6521;50.498;8.474;2023-01-29T11:17:26;0.87;73.75
12907;DHT22;6521;50.498;8.474;2023-01-29T11:19:57;0.82;74.33
12907;DHT22;6521;50.498;8.474;2023-01-29T11:22:29;0.70;74.28
12907;DHT22;6521;50.498;8.474;2023-01-29T11:25:08;0.55;74.92
12907;DHT22;6521;50.498;8.474;2023-01-29T11:27:46;0.38;75.70
12907;DHT22;6521;50.498;8.474;2023-01-29T11:30:29;0.60;76.09
12907;DHT22;6521;50.498;8.474;2023-01-29T11:35:37;1.11;75.11
12907;DHT22;6521;50.498;8.474;2023-01-29T11:40:46;1.52;72.82
12907;DHT22;6521;50.498;8.474;2023-01-29T11:43:27;1.80;72.28
12907;DHT22;6521;50.498;8.474;2023-01-29T11:46:03;1.86;70.76
12907;DHT22;6521;50.498;8.474;2023-01-29T11:48:48;2.14;71.00
12907;DHT22;6521;50.498;8.474;2023-01-29T11:51:24;2.14;69.89
12907;DHT22;6521;50.498;8.474;2023-01-29T11:54:01;1.99;69.95
12907;DHT22;6521;50.498;8.474;2023-01-29T11:56:40;1.87;70.54
12907;DHT22;6521;50.498;8.474;2023-01-29T12:04:48;1.08;72.10
12907;DHT22;6521;50.498;8.474;2023-01-29T12:07:20;0.87;72.60
12907;DHT22;6521;50.498;8.474;2023-01-29T12:09:56;0.79;74.06
12907;DHT22;6521;50.498;8.474;2023-01-29T12:12:36;0.83;74.69
12907;DHT22;6521;50.498;8.474;2023-01-29T12:15:21;0.77;73.76
12907;DHT22;6521;50.498;8.474;2023-01-29T12:18:15;0.77;73.72
12907;DHT22;6521;50.498;8.474;2023-01-29T12:21:10;0.66;74.38
12907;DHT22;6521;50.498;8.474;2023-01-29T12:26:21;0.79;74.31
12907;DHT22;6521;50.498;8.474;2023-01-29T12:29:11;1.14;73.90
12907;DHT22;6521;50.498;8.474;2023-01-29T12:32:02;1.16;72.55
12907;DHT22;6521;50.498;8.474;2023-01-29T12:37:21;0.73;72.74
12907;DHT22;6521;50.498;8.474;2023-01-29T12:39:54;0.56;73.26
12907;DHT22;6521;50.498;8.474;2023-01-29T12:42:25;0.37;73.95
12907;DHT22;6521;50.498;8.474;2023-01-29T12:45:02;0.32;74.07
12907;DHT22;6521;50.498;8.474;2023-01-29T12:47:40;0.22;74.40
12907;DHT22;6521;50.498;8.474;2023-01-29T12:52:57;0.11;75.25
12907;DHT22;6521;50.498;8.474;2023-01-29T12:55:36;-0.05;75.96
12907;DHT22;6521;50.498;8.474;2023-01-29T13:01:26;-0.03;76.31
12907;DHT22;6521;50.498;8.474;2023-01-29T13:04:20;0.01;77.29
12907;DHT22;6521;50.498;8.474;2023-01-29T13:07:02;0.12;76.44
12907;DHT22;6521;50.498;8.474;2023-01-29T13:09:38;0.32;76.52
12907;DHT22;6521;50.498;8.474;2023-01-29T13:12:17;0.84;74.99
12907;DHT22;6521;50.498;8.474;2023-01-29T13:14:57;1.01;73.69
12907;DHT22;6521;50.498;8.474;2023-01-29T13:17:48;1.26;74.01
12907;DHT22;6521;50.498;8.474;2023-01-29T13:20:31;1.26;71.91
12907;DHT22;6521;50.498;8.474;2023-01-29T13:23:21;1.08;71.66
12907;DHT22;6521;50.498;8.474;2023-01-29T13:25:53;0.82;72.16
12907;DHT22;6521;50.498;8.474;2023-01-29T13:28:25;0.65;72.59
12907;DHT22;6521;50.498;8.474;2023-01-29T13:31:15;0.69;72.78
12907;DHT22;6521;50.498;8.474;2023-01-29T13:33:54;0.72;72.71
12907;DHT22;6521;50.498;8.474;2023-01-29T13:36:28;0.93;73.43
12907;DHT22;6521;50.498;8.474;2023-01-29T13:39:01;1.24;73.22
12907;DHT22;6521;50.498;8.474;2023-01-29T13:41:35;1.54;70.66
12907;DHT22;6521;50.498;8.474;2023-01-29T13:44:19;1.73;69.89
12907;DHT22;6521;50.498;8.474;2023-01-29T13:47:20;1.70;70.02
12907;DHT22;6521;50.498;8.474;2023-01-29T13:49:56;1.78;69.90
12907;DHT22;6521;50.498;8.474;2023-01-29T14:10:33;1.85;68.89
12907;DHT22;6521;50.498;8.474;2023-01-29T14:18:29;2.03;67.08
12907;DHT22;6521;50.498;8.474;2023-01-29T14:21:05;1.83;68.23
12907;DHT22;6521;50.498;8.474;2023-01-29T14:23:48;1.52;69.47
12907;DHT22;6521;50.498;8.474;2023-01-29T14:31:41;1.69;70.12
12907;DHT22;6521;50.498;8.474;2023-01-29T14:34:26;1.75;69.08
12907;DHT22;6521;50.498;8.474;2023-01-29T14:37:00;1.82;69.56
12907;DHT22;6521;50.498;8.474;2023-01-29T14:39:36;1.79;68.62
12907;DHT22;6521;50.498;8.474;2023-01-29T14:42:23;1.54;68.81
12907;DHT22;6521;50.498;8.474;2023-01-29T14:55:58;0.86;71.73
12907;DHT22;6521;50.498;8.474;2023-01-29T14:58:37;0.77;72.07
12907;DHT22;6521;50.498;8.474;2023-01-29T15:01:31;0.68;72.10
12907;DHT22;6521;50.498;8.474;2023-01-29T15:04:28;0.55;72.69
12907;DHT22;6521;50.498;8.474;2023-01-29T15:07:04;0.45;73.24
12907;DHT22;6521;50.498;8.474;2023-01-29T15:09:45;0.37;73.59
12907;DHT22;6521;50.498;8.474;2023-01-29T15:12:24;0.28;73.33
12907;DHT22;6521;50.498;8.474;2023-01-29T15:15:24;0.24;74.25
12907;DHT22;6521;50.498;8.474;2023-01-29T15:18:18;0.24;74.64
12907;DHT22;6521;50.498;8.474;2023-01-29T15:21:04;0.21;74.27
12907;DHT22;6521;50.498;8.474;2023-01-29T15:23:42;0.11;74.69
12907;DHT22;6521;50.498;8.474;2023-01-29T15:26:19;0.11;75.06
12907;DHT22;6521;50.498;8.474;2023-01-29T15:28:54;0.02;75.41
12907;DHT22;6521;50.498;8.474;2023-01-29T15:31:26;0.01;75.66
12907;DHT22;6521;50.498;8.474;2023-01-29T15:34:00;0.01;75.68
12907;DHT22;6521;50.498;8.474;2023-01-29T15:36:35;0.00;75.75
12907;DHT22;6521;50.498;8.474;2023-01-29T15:41:44;-0.02;75.81
12907;DHT22;6521;50.498;8.474;2023-01-29T15:44:20;-0.10;75.95
12907;DHT22;6521;50.498;8.474;2023-01-29T15:46:57;-0.16;76.03
12907;DHT22;6521;50.498;8.474;2023-01-29T15:49:34;-0.24;76.40
12907;DHT22;6521;50.498;8.474;2023-01-29T15:52:22;-0.28;76.57
12907;DHT22;6521;50.498;8.474;2023-01-29T15:54:55;-0.36;76.80
12907;DHT22;6521;50.498;8.474;2023-01-29T15:57:32;-0.36;76.93
12907;DHT22;6521;50.498;8.474;2023-01-29T16:00:06;-0.37;76.98
12907;DHT22;6521;50.498;8.474;2023-01-29T16:02:47;-0.42;77.00
12907;DHT22;6521;50.498;8.474;2023-01-29T16:05:20;-0.51;77.29
12907;DHT22;6521;50.498;8.474;2023-01-29T16:07:54;-0.53;77.35
12907;DHT22;6521;50.498;8.474;2023-01-29T16:10:27;-0.58;77.39
12907;DHT22;6521;50.498;8.474;2023-01-29T16:12:59;-0.61;77.70
12907;DHT22;6521;50.498;8.474;2023-01-29T16:15:34;-0.61;78.04
12907;DHT22;6521;50.498;8.474;2023-01-29T16:18:33;-0.61;78.17
12907;DHT22;6521;50.498;8.474;2023-01-29T16:21:09;-0.62;78.08
12907;DHT22;6521;50.498;8.474;2023-01-29T16:23:46;-0.60;78.25
12907;DHT22;6521;50.498;8.474;2023-01-29T16:26:21;-0.60;77.97
12907;DHT22;6521;50.498;8.474;2023-01-29T16:28:54;-0.67;77.87
12907;DHT22;6521;50.498;8.474;2023-01-29T16:31:27;-0.77;77.70
12907;DHT22;6521;50.498;8.474;2023-01-29T16:34:05;-0.82;78.04
12907;DHT22;6521;50.498;8.474;2023-01-29T16:36:36;-0.85;78.10
12907;DHT22;6521;50.498;8.474;2023-01-29T16:39:17;-0.89;78.17
12907;DHT22;6521;50.498;8.474;2023-01-29T16:47:28;-1.02;78.77
12907;DHT22;6521;50.498;8.474;2023-01-29T16:52:34;-1.10;79.35
12907;DHT22;6521;50.498;8.474;2023-01-29T16:57:51;-1.19;79.54
12907;DHT22;6521;50.498;8.474;2023-01-29T17:00:25;-1.20;79.71
12907;DHT22;6521;50.498;8.474;2023-01-29T17:03:03;-1.23;79.95
12907;DHT22;6521;50.498;8.474;2023-01-29T17:05:36;-1.26;80.15
12907;DHT22;6521;50.498;8.474;2023-01-29T17:08:19;-1.26;80.25
12907;DHT22;6521;50.498;8.474;2023-01-29T17:10:52;-1.23;80.40
12907;DHT22;6521;50.498;8.474;2023-01-29T17:15:59;-1.26;80.63
12907;DHT22;6521;50.498;8.474;2023-01-29T17:18:32;-1.26;80.72
12907;DHT22;6521;50.498;8.474;2023-01-29T17:21:03;-1.23;80.35
12907;DHT22;6521;50.498;8.474;2023-01-29T17:23:34;-1.20;80.65
12907;DHT22;6521;50.498;8.474;2023-01-29T17:26:10;-1.23;80.52
12907;DHT22;6521;50.498;8.474;2023-01-29T17:28:41;-1.19;80.54
12907;DHT22;6521;50.498;8.474;2023-01-29T17:31:12;-1.19;80.78
12907;DHT22;6521;50.498;8.474;2023-01-29T17:33:43;-1.20;80.86
12907;DHT22;6521;50.498;8.474;2023-01-29T17:36:16;-1.19;81.09
12907;DHT22;6521;50.498;8.474;2023-01-29T17:38:47;-1.23;81.30
12907;DHT22;6521;50.498;8.474;2023-01-29T17:41:23;-1.25;81.36
12907;DHT22;6521;50.498;8.474;2023-01-29T17:43:56;-1.26;81.18
12907;DHT22;6521;50.498;8.474;2023-01-29T17:46:26;-1.30;81.26
12907;DHT22;6521;50.498;8.474;2023-01-29T17:48:57;-1.32;81.68
12907;DHT22;6521;50.498;8.474;2023-01-29T17:51:28;-1.37;81.57
12907;DHT22;6521;50.498;8.474;2023-01-29T17:53:58;-1.35;81.33
12907;DHT22;6521;50.498;8.474;2023-01-29T17:56:29;-1.42;81.32
12907;DHT22;6521;50.498;8.474;2023-01-29T17:59:00;-1.46;81.21
12907;DHT22;6521;50.498;8.474;2023-01-29T18:01:31;-1.47;81.46
12907;DHT22;6521;50.498;8.474;2023-01-29T18:04:02;-1.48;81.48
12907;DHT22;6521;50.498;8.474;2023-01-29T18:06:33;-1.53;81.68
12907;DHT22;6521;50.498;8.474;2023-01-29T18:09:04;-1.56;81.74
12907;DHT22;6521;50.498;8.474;2023-01-29T18:11:36;-1.51;81.82
12907;DHT22;6521;50.498;8.474;2023-01-29T18:14:07;-1.54;81.83
12907;DHT22;6521;50.498;8.474;2023-01-29T18:16:39;-1.54;81.91
12907;DHT22;6521;50.498;8.474;2023-01-29T18:21:43;-1.61;82.08
12907;DHT22;6521;50.498;8.474;2023-01-29T18:24:15;-1.64;82.03
12907;DHT22;6521;50.498;8.474;2023-01-29T18:26:47;-1.64;82.02
12907;DHT22;6521;50.498;8.474;2023-01-29T18:29:17;-1.70;82.17
12907;DHT22;6521;50.498;8.474;2023-01-29T18:31:48;-1.74;82.23
12907;DHT22;6521;50.498;8.474;2023-01-29T18:34:19;-1.74;82.46
12907;DHT22;6521;50.498;8.474;2023-01-29T18:36:50;-1.79;82.51
12907;DHT22;6521;50.498;8.474;2023-01-29T18:39:21;-1.79;82.64
12907;DHT22;6521;50.498;8.474;2023-01-29T18:41:52;-1.89;82.67
12907;DHT22;6521;50.498;8.474;2023-01-29T18:44:22;-1.94;82.83
12907;DHT22;6521;50.498;8.474;2023-01-29T18:46:53;-1.96;82.87
12907;DHT22;6521;50.498;8.474;2023-01-29T18:49:24;-1.96;82.99
12907;DHT22;6521;50.498;8.474;2023-01-29T18:51:54;-1.96;83.22
12907;DHT22;6521;50.498;8.474;2023-01-29T18:54:25;-2.01;83.40
12907;DHT22;6521;50.498;8.474;2023-01-29T18:56:56;-2.03;83.61
12907;DHT22;6521;50.498;8.474;2023-01-29T18:59:27;-1.98;83.36
12907;DHT22;6521;50.498;8.474;2023-01-29T19:01:58;-2.01;83.45
12907;DHT22;6521;50.498;8.474;2023-01-29T19:04:28;-1.96;83.31
12907;DHT22;6521;50.498;8.474;2023-01-29T19:06:59;-2.03;83.63
12907;DHT22;6521;50.498;8.474;2023-01-29T19:09:30;-2.02;83.71
12907;DHT22;6521;50.498;8.474;2023-01-29T19:12:01;-2.02;83.75
12907;DHT22;6521;50.498;8.474;2023-01-29T19:14:32;-1.98;83.70
12907;DHT22;6521;50.498;8.474;2023-01-29T19:17:03;-2.01;83.83
12907;DHT22;6521;50.498;8.474;2023-01-29T19:19:34;-1.99;83.76
12907;DHT22;6521;50.498;8.474;2023-01-29T19:22:05;-2.03;83.93
12907;DHT22;6521;50.498;8.474;2023-01-29T19:24:36;-2.01;83.88
12907;DHT22;6521;50.498;8.474;2023-01-29T19:27:08;-1.95;83.90